x

West Washington - 300nm West Of Aberdeen, Wa (46005) Wave Buoy

7:50pm - Sat 28th Feb 2015 All times are UTC.

  • Sig Wave height 9.8ft
  • Swell Direction
  • Peak Period 9s
  • Average Period 7s
  • Wind
    20mph, 25mph gusts
  • Sea Temp 53°f
  • Air Temp 51°f
  • Sea Pressure 1026.6mb

More Historic Weather Station data

Upgrade to MSW Pro to gain access to the past 30 days of data for over 8000 Wavebouys and Weather Stations around the globe.

Join Pro

Comparision Forecast

View Surf forecast
   
Sat 02/28 7:50pm 10ft 9s 7s 20 25 mph 1026.6mb 53f 51f
6:50pm 10.5ft 10s 7s 18 22 mph 1026mb 53f 51f
5:50pm 11ft 10s 7s 20 22 mph 1025.4mb 53f 51f
4:50pm 11ft 10s 7s 22 27 mph 1024.8mb 53f 51f
3:50pm 12ft 10s 7s 25 31 mph 1024.2mb 53f 51f
2:50pm 12ft 10s 7s 25 29 mph 1023.5mb 53f 51f
1:50pm 13ft 11s 7s 25 31 mph 1023mb 53f 51f
12:50pm 14ft 10s 7s 27 34 mph 1022.2mb 53f 51f
11:50am 14.5ft 11s 8s 27 31 mph 1021.7mb 53f 51f
10:50am 13.5ft 11s 8s 27 34 mph 1021mb 53f 51f
9:50am 16ft 11s 8s 27 34 mph 1020.5mb 53f 51f
8:50am 15ft 10s 8s 25 31 mph 1019.7mb 53f 51f
7:50am 15.5ft 9s 8s 29 38 mph 1018.8mb 53f 51f
6:50am 15ft 10s 7s 31 38 mph 1018.1mb 53f 51f
5:50am 15ft 9s 7s 31 38 mph 1017.6mb 53f 50f
4:50am 14.5ft 10s 7s 31 38 mph 1016.8mb 53f 50f
3:50am 13.5ft 10s 7s 34 43 mph 1016.4mb 53f 51f
2:50am 13ft 9s 7s 34 40 mph 1016mb 53f 51f
1:50am 14.5ft 9s 7s 31 40 mph 1015.9mb 53f 51f
12:50am 15ft 9s 7s 31 43 mph 1015.7mb 53f 51f
Fri 02/27 11:50pm 13ft 9s 7s 31 40 mph 1015.6mb 53f 51f
10:50pm 14ft 9s 7s 29 36 mph 1015.5mb 53f 50f
9:50pm 12ft 9s 7s 31 38 mph 1015.4mb 53f 51f
8:50pm 13ft 9s 7s 29 36 mph 1015.6mb 53f 51f
7:50pm 12ft 8s 7s 27 36 mph 1015.7mb 53f 50f
6:50pm 13ft 9s 7s 29 34 mph 1015.5mb 53f 51f
5:50pm 11.5ft 9s 7s 27 34 mph 1015.3mb 53f 51f
4:50pm 11.5ft 8s 7s 25 31 mph 1014.7mb 53f 50f
3:50pm 12ft 8s 7s 31 36 mph 1014.3mb 53f 50f
2:50pm 11ft 8s 7s 27 34 mph 1014.6mb 53f 51f
1:50pm 11.5ft 8s 7s 29 34 mph 1014.7mb 53f 50f
12:50pm 11ft 8s 7s 29 36 mph 1014.8mb 53f 50f
11:50am 11ft 8s 7s 29 36 mph 1015.3mb 53f 50f
10:50am 10.5ft 8s 6s 27 36 mph 1015.8mb 53f 49f
9:50am 10ft 8s 6s 27 31 mph 1016.4mb 53f 50f
8:50am 10ft 8s 6s 27 34 mph 1016.7mb 53f 50f
7:50am 10ft 8s 6s 25 31 mph 1016.9mb 53f 49f
6:50am 9.5ft 8s 6s 25 31 mph 1017.2mb 53f 50f
5:50am 9.5ft 8s 6s 25 29 mph 1017.3mb 53f 50f
4:50am 9ft 8s 6s 22 29 mph 1017.2mb 53f 49f
3:50am 8.5ft 8s 6s 25 31 mph 1017.6mb 53f 50f
2:50am 8.5ft 7s 6s 27 34 mph 1017.8mb 53f 50f
1:50am 8ft 8s 6s 27 31 mph 1018.2mb 53f 50f
12:50am 8ft 8s 6s 25 31 mph 1018.7mb 53f 50f
Thu 02/26 11:50pm 7ft 7s 6s 25 31 mph 1019.1mb 53f 51f
10:50pm 7.5ft 7s 6s 22 27 mph 1019.5mb 53f 51f
9:50pm 8ft 11s 6s 22 29 mph 1019.9mb 53f 51f
8:50pm 7ft 11s 6s 22 27 mph 1021mb 53f 51f
7:50pm 7ft 11s 6s 22 25 mph 1021.4mb 53f 52f
6:50pm 7ft 11s 6s 20 27 mph 1021.7mb 53f 52f
5:50pm 7ft 10s 6s 22 25 mph 1021.9mb 53f 52f
4:50pm 6.5ft 11s 6s 22 27 mph 1021.9mb 53f 53f
3:50pm 6ft 11s 6s 20 22 mph 1021.5mb 53f 53f
2:50pm 6.5ft 11s 6s 22 27 mph 1022mb 53f 53f
1:50pm 6.5ft 11s 6s 22 27 mph 1022.6mb 53f 53f
12:50pm 6ft 11s 6s 18 22 mph 1023.3mb 53f 53f
11:50am 6ft 11s 6s 18 22 mph 1024mb 53f 53f
10:50am 5.5ft 11s 6s 18 20 mph 1024.8mb 53f 53f
9:50am 6ft 11s 6s 18 20 mph 1025.5mb 53f 53f
8:50am 6ft 12s 6s 16 20 mph 1026.4mb 53f 53f
7:50am 6.5ft 11s 6s 16 20 mph 1027mb 53f 53f
6:50am 6ft 11s 6s 16 20 mph 1027.5mb 53f 53f
5:50am 6ft 11s 6s 18 22 mph 1027.9mb 53f 53f
4:50am 6.5ft 10s 6s 18 22 mph 1027.6mb 53f 53f
3:50am 5.5ft 11s 6s 18 22 mph 1028.5mb 53f 53f
2:50am 6ft 6s 6s 16 20 mph 1028.2mb 53f 53f
1:50am 6ft 6s 5s 20 25 mph 1028.9mb 53f 53f
12:50am 6ft 6s 5s 18 22 mph 1029.3mb 53f 53f
Wed 02/25 11:50pm 6ft 5s 5s 20 27 mph 1029.7mb 53f 53f
10:50pm 5ft 12s 5s 20 27 mph 1029.9mb 53f 53f
9:50pm 5ft 11s 6s 22 25 mph 1030.2mb 53f 53f
8:50pm 5ft 11s 5s 20 25 mph 1031.2mb 53f 53f
7:50pm 4.5ft 11s 5s 18 22 mph 1031.7mb 53f 53f
6:50pm 5ft 11s 6s 18 22 mph 1032.7mb 53f 53f
5:50pm 4.5ft 11s 6s 16 18 mph 1032.8mb 53f 53f
4:50pm 4.5ft 11s 6s 16 20 mph 1032.8mb 53f 52f
3:50pm 4.5ft 10s 7s 16 18 mph 1032.6mb 53f 51f
2:50pm 4ft 11s 6s 9 11 mph 1033.1mb 53f 51f
1:50pm 4.5ft 9s 6s 11 13 mph 1033.6mb 53f 51f
12:50pm 4.5ft 11s 7s 11 13 mph 1033.3mb 53f 51f
11:50am 4.5ft 11s 6s 11 13 mph 1033.5mb 53f 51f
10:50am 4.5ft 11s 7s 9 11 mph 1033.2mb 53f 51f
9:50am 4.5ft 11s 6s 9 11 mph 1033.4mb 53f 51f
8:50am 4.5ft 11s 6s 7 9 mph 1033.6mb 53f 51f
7:50am 4.5ft 11s 6s 11 13 mph 1033.8mb 53f 51f
6:50am 5ft 11s 6s 7 9 mph 1033.4mb 53f 51f
5:50am 5ft 12s 6s 9 13 mph 1033.8mb 53f 51f
4:50am 5ft 11s 6s 13 18 mph 1033.6mb 53f 51f
3:50am 5ft 11s 6s 16 20 mph 1033.4mb 53f 51f
2:50am 5ft 11s 6s 16 20 mph 1032.9mb 53f 51f
1:50am 5ft 11s 6s 16 20 mph 1032.5mb 53f 51f
12:50am 5.5ft 12s 7s 18 20 mph 1032.2mb 53f 51f
Tue 02/24 11:50pm 5.5ft 11s 7s 16 18 mph 1032.6mb 53f 52f
10:50pm 5.5ft 11s 7s 13 16 mph 1032.7mb 53f 51f
9:50pm 5.5ft 12s 7s 13
mph
1033mb 53f 51f